createdAt,value
2023-11-24T00:00:05.615Z,56.58
2023-11-24T00:02:41.422Z,53.22
2023-11-24T00:05:09.627Z,85.18
2023-11-24T00:07:41.695Z,59.17
2023-11-24T00:10:10.745Z,53.50
2023-11-24T00:12:38.247Z,56.30
2023-11-24T00:15:07.410Z,61.40
2023-11-24T00:17:37.865Z,65.88
2023-11-24T00:20:09.436Z,59.47
2023-11-24T00:22:36.683Z,57.03
2023-11-24T00:25:05.256Z,52.47
2023-11-24T00:27:34.731Z,55.38
2023-11-24T00:30:03.034Z,54.80
2023-11-24T00:32:40.065Z,64.13
2023-11-24T00:35:08.279Z,72.95
2023-11-24T00:37:37.191Z,58.05
2023-11-24T00:40:09.312Z,63.83
2023-11-24T00:42:38.992Z,66.05
2023-11-24T00:45:08.830Z,66.05
2023-11-24T00:47:36.188Z,69.57
2023-11-24T00:50:05.861Z,55.85
2023-11-24T00:52:33.985Z,56.03
2023-11-24T00:55:02.724Z,64.03
2023-11-24T00:57:33.213Z,61.95
2023-11-24T01:00:05.814Z,56.45
2023-11-24T01:02:34.842Z,55.50
2023-11-24T01:05:06.140Z,59.92
2023-11-24T01:07:38.806Z,57.70
2023-11-24T01:10:09.531Z,58.42
2023-11-24T01:12:37.057Z,55.08
2023-11-24T01:15:06.398Z,55.88
2023-11-24T01:17:34.427Z,57.45
2023-11-24T01:20:03.153Z,61.35
2023-11-24T01:22:32.628Z,57.50
2023-11-24T01:25:01.124Z,62.75
2023-11-24T01:27:31.470Z,70.40
2023-11-24T01:29:59.381Z,64.78
2023-11-24T01:32:28.808Z,61.20
2023-11-24T01:34:56.426Z,67.20
2023-11-24T01:37:26.170Z,55.10
2023-11-24T01:39:54.892Z,57.17
2023-11-24T01:42:22.765Z,58.08
2023-11-24T01:44:50.274Z,49.55
2023-11-24T01:47:19.614Z,48.25
2023-11-24T01:49:47.314Z,48.63
2023-11-24T01:52:15.830Z,47.22
2023-11-24T01:54:43.966Z,54.90
2023-11-24T01:59:59.581Z,47.60
2023-11-24T02:02:31.094Z,58.13
2023-11-24T02:05:03.260Z,60.50
2023-11-24T02:07:38.857Z,52.30
2023-11-24T02:10:16.086Z,50.67
2023-11-24T02:12:56.367Z,51.20
2023-11-24T02:15:32.176Z,49.28
2023-11-24T02:18:01.838Z,49.83
2023-11-24T02:20:36.052Z,60.95
2023-11-24T02:23:06.411Z,63.15
2023-11-24T02:25:37.424Z,54.97
2023-11-24T02:28:06.518Z,57.67
2023-11-24T02:30:40.583Z,56.78
2023-11-24T02:35:49.886Z,50.67
2023-11-24T02:38:21.910Z,51.80
2023-11-24T02:40:53.147Z,48.60
2023-11-24T02:43:24.642Z,49.10
2023-11-24T02:46:05.334Z,45.53
2023-11-24T02:48:45.825Z,46.53
2023-11-24T02:51:24.535Z,52.83
2023-11-24T02:53:54.585Z,47.85
2023-11-24T02:56:22.483Z,46.63
2023-11-24T02:58:57.423Z,43.95
2023-11-24T03:01:35.928Z,35.05
2023-11-24T03:04:05.664Z,44.30
2023-11-24T03:09:27.130Z,55.47
2023-11-24T03:11:59.206Z,38.75
2023-11-24T03:14:28.689Z,48.22
2023-11-24T03:16:59.771Z,59.53
2023-11-24T03:19:29.813Z,50.20
2023-11-24T03:22:00.307Z,48.70
2023-11-24T03:24:29.741Z,45.25
2023-11-24T03:26:59.046Z,47.80
2023-11-24T03:29:27.527Z,45.00
2023-11-24T03:32:00.388Z,47.75
2023-11-24T03:34:30.826Z,44.10
2023-11-24T03:37:01.284Z,45.53
2023-11-24T03:39:30.979Z,45.60
2023-11-24T03:42:01.525Z,49.92
2023-11-24T03:44:29.717Z,48.78
2023-11-24T03:47:01.149Z,50.80
2023-11-24T03:49:29.559Z,42.50
2023-11-24T03:51:59.555Z,43.97
2023-11-24T03:54:31.451Z,45.08
2023-11-24T03:57:17.427Z,48.05
2023-11-24T03:59:51.995Z,46.25
2023-11-24T04:02:31.419Z,46.27
2023-11-24T04:04:58.688Z,46.38
2023-11-24T04:07:28.207Z,47.70
2023-11-24T04:10:05.609Z,48.05
2023-11-24T04:12:33.862Z,47.05
2023-11-24T04:15:06.674Z,50.70
2023-11-24T04:17:40.148Z,49.63
2023-11-24T04:22:56.616Z,53.10
2023-11-24T04:25:26.741Z,51.33
2023-11-24T04:27:56.486Z,49.35
2023-11-24T04:30:28.505Z,52.33
2023-11-24T04:32:58.648Z,49.83
2023-11-24T04:35:28.831Z,48.95
2023-11-24T04:38:00.414Z,48.47
2023-11-24T04:40:29.124Z,53.22
2023-11-24T04:42:58.861Z,53.88
2023-11-24T04:45:30.868Z,55.40
2023-11-24T04:48:05.942Z,50.80
2023-11-24T04:50:34.212Z,58.35
2023-11-24T04:53:02.969Z,53.65
2023-11-24T04:58:19.099Z,47.88
2023-11-24T05:00:52.741Z,47.22
2023-11-24T05:03:23.311Z,49.75
2023-11-24T05:05:56.618Z,49.42
2023-11-24T05:08:34.554Z,47.33
2023-11-24T05:11:12.529Z,51.35
2023-11-24T05:13:44.527Z,61.33
2023-11-24T05:16:20.496Z,54.22
2023-11-24T05:18:56.124Z,55.70
2023-11-24T05:21:27.779Z,51.53
2023-11-24T05:23:57.814Z,48.55
2023-11-24T05:26:28.600Z,48.75
2023-11-24T05:28:59.794Z,47.60
2023-11-24T05:31:31.424Z,48.10
2023-11-24T05:34:01.530Z,48.33
2023-11-24T05:36:31.916Z,44.78
2023-11-24T05:39:01.622Z,46.30
2023-11-24T05:41:37.519Z,50.75
2023-11-24T05:44:07.220Z,58.30
2023-11-24T05:46:35.783Z,48.08
2023-11-24T05:49:05.721Z,49.60
2023-11-24T05:51:34.378Z,55.13
2023-11-24T05:54:07.888Z,52.50
2023-11-24T05:56:38.585Z,58.55
2023-11-24T05:59:08.768Z,59.35
2023-11-24T06:01:40.171Z,52.60
2023-11-24T06:04:11.248Z,45.08
2023-11-24T06:06:40.548Z,52.08
2023-11-24T06:09:11.132Z,52.03
2023-11-24T06:11:38.858Z,51.45
2023-11-24T06:14:06.299Z,51.83
2023-11-24T06:16:33.777Z,44.72
2023-11-24T06:19:02.531Z,46.75
2023-11-24T06:21:31.242Z,47.92
2023-11-24T06:23:59.479Z,41.88
2023-11-24T06:29:12.386Z,40.13
2023-11-24T06:31:43.427Z,51.20
2023-11-24T06:34:13.083Z,46.90
2023-11-24T06:36:47.065Z,51.25
2023-11-24T06:39:22.063Z,54.97
2023-11-24T06:41:51.469Z,49.35
2023-11-24T06:44:20.548Z,50.25
2023-11-24T06:46:50.444Z,49.25
2023-11-24T06:49:21.489Z,52.80
2023-11-24T06:51:53.814Z,50.28
2023-11-24T06:54:23.436Z,48.85
2023-11-24T06:57:02.978Z,59.35
2023-11-24T06:59:32.317Z,61.65
2023-11-24T07:02:03.844Z,56.85
2023-11-24T07:04:34.742Z,56.47
2023-11-24T07:07:10.497Z,57.20
2023-11-24T07:09:45.004Z,51.92
2023-11-24T07:12:19.382Z,59.35
2023-11-24T07:14:51.721Z,62.35
2023-11-24T07:17:22.918Z,46.88
2023-11-24T07:20:00.908Z,55.05
2023-11-24T07:22:31.876Z,50.60
2023-11-24T07:25:00.723Z,53.88
2023-11-24T07:27:32.745Z,50.35
2023-11-24T07:30:00.462Z,56.90
2023-11-24T07:32:31.436Z,57.10
2023-11-24T07:35:08.618Z,56.22
2023-11-24T07:37:47.280Z,54.33
2023-11-24T07:40:17.942Z,55.63
2023-11-24T07:42:48.217Z,58.85
2023-11-24T07:45:17.021Z,61.20
2023-11-24T07:47:49.080Z,57.75
2023-11-24T07:50:19.868Z,57.47
2023-11-24T07:52:51.967Z,56.22
2023-11-24T07:55:20.403Z,56.53
2023-11-24T07:57:49.878Z,57.33
2023-11-24T08:00:19.176Z,51.95
2023-11-24T08:02:56.003Z,55.30
2023-11-24T08:05:32.119Z,55.15
2023-11-24T08:08:08.821Z,63.38
2023-11-24T08:10:44.514Z,57.15
2023-11-24T08:13:17.334Z,63.83
2023-11-24T08:15:47.171Z,58.42
2023-11-24T08:18:23.091Z,60.35
2023-11-24T08:21:11.107Z,62.38
2023-11-24T08:23:40.224Z,59.03
2023-11-24T08:26:23.685Z,52.00
2023-11-24T08:28:56.059Z,50.55
2023-11-24T08:31:45.680Z,51.97
2023-11-24T08:34:17.339Z,49.58
2023-11-24T08:36:47.879Z,47.92
2023-11-24T08:39:38.788Z,49.42
2023-11-24T08:45:15.204Z,49.35
2023-11-24T08:48:18.485Z,56.55
2023-11-24T08:50:49.190Z,51.67
2023-11-24T08:53:26.927Z,51.38
2023-11-24T08:55:59.175Z,58.50
2023-11-24T08:58:31.622Z,55.53
2023-11-24T09:01:01.941Z,57.90
2023-11-24T09:03:35.332Z,59.53
2023-11-24T09:12:02.452Z,63.28
2023-11-24T09:14:46.176Z,59.95
2023-11-24T09:17:24.584Z,56.90
2023-11-24T09:20:07.433Z,71.88
2023-11-24T09:22:36.764Z,62.63
2023-11-24T09:25:10.570Z,52.05
2023-11-24T09:27:48.787Z,59.45
2023-11-24T09:30:18.266Z,57.38
2023-11-24T09:32:54.964Z,62.42
2023-11-24T09:35:28.870Z,104.65
2023-11-24T09:38:01.070Z,76.40
2023-11-24T09:40:32.285Z,54.92
2023-11-24T09:43:05.737Z,58.03
2023-11-24T09:45:34.351Z,53.92
2023-11-24T09:48:05.363Z,55.28
2023-11-24T09:50:37.779Z,62.47
2023-11-24T09:53:07.825Z,59.58
2023-11-24T09:55:36.388Z,59.83
2023-11-24T09:58:05.538Z,56.20
2023-11-24T10:00:35.214Z,62.20
2023-11-24T10:03:08.730Z,57.15
2023-11-24T10:05:37.352Z,53.05
2023-11-24T10:08:04.905Z,54.28
2023-11-24T10:10:32.312Z,56.65
2023-11-24T10:13:04.406Z,57.85
2023-11-24T10:15:33.582Z,53.05
2023-11-24T10:18:01.128Z,57.85
2023-11-24T10:20:31.681Z,66.57
2023-11-24T10:23:01.976Z,62.40
2023-11-24T10:25:35.543Z,65.75
2023-11-24T10:28:08.478Z,58.92
2023-11-24T10:30:39.772Z,56.33
2023-11-24T10:33:07.458Z,62.45
2023-11-24T10:35:34.792Z,60.33
2023-11-24T10:38:03.674Z,57.78
2023-11-24T10:40:33.098Z,63.75
2023-11-24T10:43:19.583Z,54.45
2023-11-24T10:45:52.725Z,59.97
2023-11-24T10:48:47.430Z,56.55
2023-11-24T10:51:31.162Z,62.75
2023-11-24T10:54:05.057Z,70.70
2023-11-24T10:56:36.773Z,75.47
2023-11-24T10:59:07.148Z,71.90
2023-11-24T11:01:35.093Z,72.78
2023-11-24T11:04:03.424Z,75.30
2023-11-24T11:07:03.252Z,64.50
2023-11-24T11:09:44.310Z,65.38
2023-11-24T11:12:32.183Z,66.80
2023-11-24T11:15:00.963Z,67.13
2023-11-24T11:17:33.059Z,80.60
2023-11-24T11:20:17.554Z,84.70
2023-11-24T11:22:48.661Z,86.72
2023-11-24T11:25:29.223Z,79.70
2023-11-24T11:27:57.076Z,73.40
2023-11-24T11:30:28.217Z,74.78
2023-11-24T11:33:11.606Z,81.13
2023-11-24T11:35:42.947Z,84.72
2023-11-24T11:38:15.079Z,91.57
2023-11-24T11:40:52.818Z,88.40
2023-11-24T11:43:20.825Z,88.22
2023-11-24T11:45:53.184Z,82.85
2023-11-24T11:48:24.066Z,78.20
2023-11-24T11:51:01.289Z,74.15
2023-11-24T11:53:32.933Z,80.78
2023-11-24T11:56:15.343Z,89.35
2023-11-24T11:58:42.885Z,87.45
2023-11-24T12:01:10.480Z,94.95
2023-11-24T12:03:40.219Z,88.10
2023-11-24T12:06:08.916Z,94.18
2023-11-24T12:08:40.347Z,86.40
2023-11-24T12:11:08.985Z,91.07
2023-11-24T12:13:40.636Z,89.13
2023-11-24T12:16:09.714Z,92.53
2023-11-24T12:18:37.605Z,91.38
2023-11-24T12:21:05.559Z,84.40
2023-11-24T12:23:33.212Z,92.30
2023-11-24T12:26:01.324Z,84.85
2023-11-24T12:28:28.865Z,82.28
2023-11-24T12:30:59.378Z,86.93
2023-11-24T12:33:26.696Z,87.70
2023-11-24T12:35:58.911Z,78.97
2023-11-24T12:38:29.442Z,92.22
2023-11-24T12:40:58.545Z,93.13
2023-11-24T12:43:26.758Z,96.10
2023-11-24T12:45:54.140Z,87.65
2023-11-24T12:48:26.098Z,87.60
2023-11-24T12:51:00.076Z,83.93
2023-11-24T12:53:28.683Z,85.72
2023-11-24T12:55:56.948Z,83.60
2023-11-24T12:58:24.977Z,89.22
2023-11-24T13:00:55.582Z,81.30
2023-11-24T13:03:24.432Z,92.07
2023-11-24T13:05:59.166Z,85.20
2023-11-24T13:08:31.424Z,75.88
2023-11-24T13:11:03.167Z,82.85
2023-11-24T13:13:31.033Z,87.10
2023-11-24T13:15:58.790Z,81.93
2023-11-24T13:18:27.087Z,88.82
2023-11-24T13:20:54.676Z,77.03
2023-11-24T13:23:22.052Z,77.93
2023-11-24T13:25:50.752Z,88.32
2023-11-24T13:28:18.939Z,84.28
2023-11-24T13:30:46.512Z,92.00
2023-11-24T13:33:17.600Z,90.47
2023-11-24T13:35:49.728Z,81.78
2023-11-24T13:38:21.179Z,86.00
2023-11-24T13:40:49.914Z,84.28
2023-11-24T13:43:17.400Z,86.35
2023-11-24T13:45:45.284Z,89.97
2023-11-24T13:48:13.814Z,90.40
2023-11-24T13:50:41.131Z,109.68
2023-11-24T13:53:08.584Z,94.95
2023-11-24T13:55:45.184Z,98.22
2023-11-24T13:58:13.634Z,99.47
2023-11-24T14:00:40.832Z,98.70
2023-11-24T14:03:08.463Z,98.88
2023-11-24T14:05:35.661Z,103.93
2023-11-24T14:08:04.515Z,100.68
2023-11-24T14:10:31.809Z,95.57
2023-11-24T14:12:59.596Z,109.95
2023-11-24T14:15:28.696Z,103.00
2023-11-24T14:17:57.748Z,104.82
2023-11-24T14:20:26.814Z,107.78
2023-11-24T14:22:54.389Z,99.50
2023-11-24T14:25:25.944Z,100.43
2023-11-24T14:27:55.185Z,112.90
2023-11-24T14:30:22.448Z,107.68
2023-11-24T14:32:49.825Z,97.07
2023-11-24T14:35:17.408Z,101.97
2023-11-24T14:37:45.418Z,98.20
2023-11-24T14:40:20.103Z,101.10
2023-11-24T14:42:51.361Z,100.47
2023-11-24T14:45:19.641Z,99.72
2023-11-24T14:47:50.876Z,94.20
2023-11-24T14:50:26.527Z,106.97
2023-11-24T14:52:59.101Z,101.85
2023-11-24T14:55:30.628Z,93.68
2023-11-24T14:57:58.471Z,97.13
2023-11-24T15:00:35.109Z,101.72
2023-11-24T15:03:09.685Z,135.55
2023-11-24T15:05:43.038Z,118.35
2023-11-24T15:08:16.079Z,107.10
2023-11-24T15:10:46.667Z,112.45
2023-11-24T15:13:22.968Z,112.13
2023-11-24T15:15:51.106Z,107.15
2023-11-24T15:18:21.946Z,105.50
2023-11-24T15:20:54.968Z,106.68
2023-11-24T15:23:28.862Z,112.05
2023-11-24T15:25:57.077Z,110.00
2023-11-24T15:28:27.407Z,126.00
2023-11-24T15:30:55.882Z,114.32
2023-11-24T15:33:24.489Z,111.60
2023-11-24T15:38:40.724Z,113.88
2023-11-24T15:41:11.216Z,117.35
2023-11-24T15:43:38.733Z,126.22
2023-11-24T15:46:09.670Z,125.20
2023-11-24T15:48:39.322Z,115.50
2023-11-24T15:51:06.802Z,120.55
2023-11-24T15:53:34.113Z,115.97
2023-11-24T15:56:02.211Z,111.65
2023-11-24T15:58:30.101Z,119.53
2023-11-24T16:00:58.829Z,111.38
2023-11-24T16:03:28.396Z,112.97
2023-11-24T16:06:01.305Z,124.32
2023-11-24T16:08:34.566Z,118.22
2023-11-24T16:11:11.900Z,120.97
2023-11-24T16:13:42.832Z,125.72
2023-11-24T16:16:10.659Z,118.90
2023-11-24T16:18:43.057Z,120.72
2023-11-24T16:21:11.662Z,123.60
2023-11-24T16:23:39.794Z,121.85
2023-11-24T16:26:08.393Z,116.32
2023-11-24T16:28:38.762Z,109.85
2023-11-24T16:31:07.291Z,119.25
2023-11-24T16:33:36.925Z,132.45
2023-11-24T16:36:07.210Z,146.20
2023-11-24T16:38:38.386Z,146.02
2023-11-24T16:41:09.219Z,138.68
2023-11-24T16:43:37.287Z,132.75
2023-11-24T16:46:08.206Z,131.80
2023-11-24T16:48:40.853Z,132.68
2023-11-24T16:51:10.965Z,136.27
2023-11-24T16:53:39.331Z,130.32
2023-11-24T16:56:09.928Z,113.95
2023-11-24T16:58:38.339Z,116.18
2023-11-24T17:01:07.903Z,104.85
2023-11-24T17:03:39.270Z,95.80
2023-11-24T17:06:12.047Z,83.07
2023-11-24T17:08:42.079Z,58.83
2023-11-24T17:11:14.321Z,66.68
2023-11-24T17:13:45.524Z,94.50
2023-11-24T17:16:15.966Z,106.70
2023-11-24T17:18:44.702Z,88.78
2023-11-24T17:21:13.701Z,91.43
2023-11-24T17:23:42.506Z,88.05
2023-11-24T17:26:14.584Z,89.72
2023-11-24T17:28:47.803Z,89.50
2023-11-24T17:31:16.072Z,83.60
2023-11-24T17:33:44.669Z,89.47
2023-11-24T17:36:12.765Z,94.28
2023-11-24T17:38:43.076Z,97.95
2023-11-24T17:41:20.800Z,91.32
2023-11-24T17:43:55.746Z,92.30
2023-11-24T17:46:24.327Z,94.35
2023-11-24T17:48:53.586Z,101.50
2023-11-24T17:51:26.793Z,100.60
2023-11-24T17:53:57.301Z,89.00
2023-11-24T17:56:25.134Z,94.65
2023-11-24T17:58:53.209Z,93.88
2023-11-24T18:01:22.142Z,84.80
2023-11-24T18:03:49.735Z,89.57
2023-11-24T18:06:33.380Z,84.72
2023-11-24T18:09:03.823Z,85.30
2023-11-24T18:11:34.723Z,76.25
2023-11-24T18:14:04.730Z,74.25
2023-11-24T18:16:33.195Z,74.68
2023-11-24T18:19:02.516Z,66.82
2023-11-24T18:21:30.517Z,63.40
2023-11-24T18:23:58.348Z,57.80
2023-11-24T18:26:29.302Z,56.75
2023-11-24T18:28:56.700Z,53.08
2023-11-24T18:31:24.673Z,47.28
2023-11-24T18:33:52.020Z,43.85
2023-11-24T18:36:19.604Z,39.83
2023-11-24T18:38:48.917Z,29.00
2023-11-24T18:41:20.041Z,31.40
2023-11-24T18:43:48.173Z,28.70
2023-11-24T18:46:20.063Z,26.65
2023-11-24T18:48:56.565Z,28.20
2023-11-24T18:51:24.451Z,26.55
2023-11-24T18:53:53.107Z,27.77
2023-11-24T18:56:26.748Z,27.30
2023-11-24T18:58:54.604Z,26.75
2023-11-24T19:01:22.004Z,24.63
2023-11-24T19:03:51.846Z,21.80
2023-11-24T19:06:19.395Z,16.55
2023-11-24T19:08:47.628Z,15.38
2023-11-24T19:11:21.866Z,13.32
2023-11-24T19:13:50.743Z,14.48
2023-11-24T19:16:18.322Z,10.48
2023-11-24T19:18:46.105Z,9.68
2023-11-24T19:21:14.763Z,12.02
2023-11-24T19:23:42.685Z,10.52
2023-11-24T19:26:13.409Z,12.57
2023-11-24T19:28:58.991Z,12.68
2023-11-24T19:31:33.562Z,11.30
2023-11-24T19:34:03.365Z,12.65
2023-11-24T19:36:31.045Z,14.77
2023-11-24T19:38:58.338Z,10.50
2023-11-24T19:41:25.623Z,13.57
2023-11-24T19:43:54.599Z,13.65
2023-11-24T19:46:25.387Z,70.63
2023-11-24T19:51:36.245Z,17.75
2023-11-24T19:54:06.030Z,13.90
2023-11-24T19:56:33.804Z,15.30
2023-11-24T19:59:05.543Z,13.52
2023-11-24T20:01:35.655Z,13.38
2023-11-24T20:04:04.562Z,15.48
2023-11-24T20:06:33.069Z,12.10
2023-11-24T20:09:07.408Z,13.93
2023-11-24T20:11:34.963Z,11.80
2023-11-24T20:14:04.740Z,10.48
2023-11-24T20:16:32.865Z,11.90
2023-11-24T20:19:02.749Z,11.20
2023-11-24T20:21:34.854Z,13.30
2023-11-24T20:24:03.011Z,30.23
2023-11-24T20:26:31.468Z,66.10
2023-11-24T20:29:02.258Z,31.92
2023-11-24T20:31:31.136Z,26.02
2023-11-24T20:33:59.710Z,29.38
2023-11-24T20:36:29.096Z,27.58
2023-11-24T20:39:00.506Z,17.73
2023-11-24T20:41:31.868Z,17.13
2023-11-24T20:43:59.882Z,14.35
2023-11-24T20:46:33.460Z,13.48
2023-11-24T20:49:04.748Z,14.77
2023-11-24T20:51:38.939Z,14.73
2023-11-24T20:54:10.313Z,15.93
2023-11-24T20:56:37.664Z,16.67
2023-11-24T20:59:12.338Z,18.08
2023-11-24T21:01:43.247Z,17.42
2023-11-24T21:04:13.956Z,21.10
2023-11-24T21:06:41.934Z,15.23
2023-11-24T21:09:12.396Z,16.85
2023-11-24T21:11:41.142Z,16.65
2023-11-24T21:14:09.740Z,15.32
2023-11-24T21:16:41.569Z,14.82
2023-11-24T21:19:15.791Z,15.77
2023-11-24T21:21:46.183Z,18.40
2023-11-24T21:24:17.735Z,18.33
2023-11-24T21:26:45.695Z,18.13
2023-11-24T21:29:13.082Z,18.05
2023-11-24T21:31:41.041Z,24.83
2023-11-24T21:34:10.216Z,26.38
2023-11-24T21:36:42.295Z,26.92
2023-11-24T21:39:13.212Z,34.95
2023-11-24T21:41:42.084Z,39.83
2023-11-24T21:44:09.825Z,32.67
2023-11-24T21:46:37.496Z,21.88
2023-11-24T21:49:06.358Z,16.48
2023-11-24T21:51:34.058Z,19.02
2023-11-24T21:54:05.020Z,22.67
2023-11-24T21:56:37.150Z,18.08
2023-11-24T21:59:05.513Z,21.92
2023-11-24T22:01:35.186Z,25.30
2023-11-24T22:04:05.581Z,22.17
2023-11-24T22:06:39.311Z,18.58
2023-11-24T22:09:09.276Z,16.70
2023-11-24T22:11:37.235Z,18.13
2023-11-24T22:14:09.785Z,18.23
2023-11-24T22:16:37.529Z,16.33
2023-11-24T22:19:07.702Z,18.15
2023-11-24T22:21:35.477Z,17.52
2023-11-24T22:24:09.809Z,20.67
2023-11-24T22:26:39.409Z,23.33
2023-11-24T22:29:07.132Z,20.35
2023-11-24T22:31:34.526Z,21.20
2023-11-24T22:34:03.190Z,22.75
2023-11-24T22:36:31.976Z,23.40
2023-11-24T22:38:59.214Z,22.83
2023-11-24T22:41:28.176Z,20.98
2023-11-24T22:43:56.686Z,21.77
2023-11-24T22:46:28.340Z,19.23
2023-11-24T22:48:58.649Z,21.60
2023-11-24T22:51:28.133Z,23.00
2023-11-24T22:53:58.691Z,19.08
2023-11-24T22:56:29.251Z,18.27
2023-11-24T22:58:59.727Z,17.73
2023-11-24T23:01:29.671Z,19.75
2023-11-24T23:03:59.101Z,20.55
2023-11-24T23:06:29.802Z,18.73
2023-11-24T23:09:00.554Z,20.17
2023-11-24T23:11:33.202Z,18.00
2023-11-24T23:14:04.845Z,21.30
2023-11-24T23:16:36.555Z,22.30
2023-11-24T23:19:07.943Z,20.30
2023-11-24T23:21:37.812Z,19.98
2023-11-24T23:24:05.844Z,17.70
2023-11-24T23:26:34.238Z,17.90
2023-11-24T23:29:04.881Z,18.33
2023-11-24T23:31:33.983Z,21.08
2023-11-24T23:34:07.195Z,20.55
2023-11-24T23:36:37.545Z,21.80
2023-11-24T23:39:05.706Z,24.55
2023-11-24T23:41:33.480Z,20.83
2023-11-24T23:44:01.798Z,23.92
2023-11-24T23:46:31.074Z,24.48
2023-11-24T23:49:02.538Z,26.27
2023-11-24T23:51:40.165Z,19.30
2023-11-24T23:54:08.748Z,24.15
2023-11-24T23:56:43.370Z,21.65
2023-11-24T23:59:13.950Z,20.17
